»·PEaware :: N902SQ KRAL-KFLG

N902SQ :: KRAL-KFLG

FLIGHT INFORMATION

Flight Status: Arrived
Operator: Privately registered:
United States
More flights under this callsign
Pilot: Gabor H. (24209)
Aircraft: SOCATA TBM-900
(TBM9)
More flights by this aircraft type
Origin: KRAL Riverside Mun
United States
Destination: KFLG Flagstaff Pulliam
United States
More flights between these airports :: More routes between these airports
Route: RAL2 PDZ V186 NIKKL V64 TRM EED V12 DRK
File this flight plan on PilotEdge
Remarks:
Altitude:
(Current/Filed)
27,000ft
Speed:
(Current/Filed)
305kts
Departed: 17-Oct-23 07:17 AM
Arrived: 17-Oct-23 08:28 AM
Distance/Time
Traveled:
294nm/1:10
Distance/Time
To Go:
Arrived

Flight Plot

Page will automatically refresh every two minutes.

Flight plan parsing failed; only flown route is shown


Map Options




Map Legend


Flown Route
Filed Route
Departure Airport
Arrival Airport
Navaid (VOR, NDB)
Fix

Horizontal Profiles

Position Reports

Time Latitude Longitude Heading Altitude Ground
Speed
17-Oct-23 06:57 33.950052 -117.442702 315 818ft 1kts
17-Oct-23 06:58 33.950206 -117.443001 112 818ft 0kts
17-Oct-23 06:59 33.950206 -117.443001 112 818ft 0kts
17-Oct-23 07:00 33.950206 -117.443001 112 818ft 0kts
17-Oct-23 07:01 33.950206 -117.443001 112 818ft 0kts
17-Oct-23 07:02 33.950206 -117.443001 112 818ft 0kts
17-Oct-23 07:03 33.950206 -117.443001 112 818ft 0kts
17-Oct-23 07:04 33.950206 -117.443001 112 818ft 0kts
17-Oct-23 07:05 33.950206 -117.443001 112 818ft 0kts
17-Oct-23 07:06 33.950206 -117.443001 112 818ft 0kts
17-Oct-23 07:07 33.950206 -117.443001 112 818ft 0kts
17-Oct-23 07:08 33.950206 -117.443001 112 818ft 0kts
17-Oct-23 07:09 33.950206 -117.443001 112 818ft 0kts
17-Oct-23 07:10 33.950206 -117.443001 112 818ft 0kts
17-Oct-23 07:11 33.950206 -117.443001 112 818ft 0kts
17-Oct-23 07:12 33.950577 -117.440592 68 818ft 18kts
17-Oct-23 07:13 33.949898 -117.435145 67 818ft 1kts
17-Oct-23 07:14 33.949910 -117.435114 61 818ft 0kts
17-Oct-23 07:15 33.950470 -117.434903 342 818ft 6kts
17-Oct-23 07:16 33.955366 -117.456979 287 1380ft 114kts
17-Oct-23 07:17 33.940553 -117.454190 103 2563ft 161kts
17-Oct-23 07:18 33.908546 -117.422120 113 4600ft 138kts
17-Oct-23 07:19 33.909304 -117.375848 85 6654ft 145kts
17-Oct-23 07:20 33.912307 -117.328174 85 8751ft 146kts
17-Oct-23 07:22 33.915237 -117.278929 85 10861ft 150kts
17-Oct-23 07:23 33.917358 -117.228109 85 12987ft 157kts
17-Oct-23 07:24 33.919951 -117.175210 85 15103ft 162kts
17-Oct-23 07:25 33.926823 -117.120615 80 16985ft 169kts
17-Oct-23 07:26 33.935465 -117.056198 80 17560ft 232kts
17-Oct-23 07:27 33.946568 -116.973144 80 17529ft 263kts
17-Oct-23 07:28 33.958710 -116.884539 80 17525ft 271kts
17-Oct-23 07:29 33.971263 -116.794601 80 17504ft 273kts
17-Oct-23 07:30 33.984069 -116.704074 80 17482ft 273kts
17-Oct-23 07:31 33.997164 -116.613733 80 17464ft 273kts
17-Oct-23 07:32 34.010480 -116.523532 80 17464ft 274kts
17-Oct-23 07:33 34.023995 -116.433089 80 17467ft 277kts
17-Oct-23 07:34 34.037906 -116.340344 80 17484ft 283kts
17-Oct-23 07:35 34.052069 -116.246637 80 17533ft 284kts
17-Oct-23 07:36 34.066288 -116.153081 80 17595ft 283kts
17-Oct-23 07:37 34.080569 -116.059666 80 17618ft 284kts
17-Oct-23 07:38 34.095180 -115.965914 80 17620ft 285kts
17-Oct-23 07:39 34.109703 -115.872723 80 17617ft 285kts
17-Oct-23 07:40 34.124357 -115.778884 80 17617ft 285kts
17-Oct-23 07:41 34.132959 -115.684224 91 17620ft 283kts
17-Oct-23 07:42 34.132655 -115.589004 91 17618ft 283kts
17-Oct-23 07:43 34.132122 -115.493991 90 17618ft 284kts
17-Oct-23 07:44 34.145054 -115.401370 65 17608ft 286kts
17-Oct-23 07:45 34.177698 -115.313636 66 17553ft 287kts
17-Oct-23 07:46 34.219156 -115.231992 51 17515ft 287kts
17-Oct-23 07:47 34.267450 -115.164113 48 19281ft 234kts
17-Oct-23 07:48 34.306253 -115.110833 47 22074ft 197kts
17-Oct-23 07:49 34.341149 -115.062929 47 24581ft 193kts
17-Oct-23 07:50 34.376909 -115.013767 47 26845ft 199kts
17-Oct-23 07:50 34.412954 -114.964149 47 27051ft 267kts
17-Oct-23 07:51 34.465629 -114.891483 47 27019ft 302kts
17-Oct-23 07:52 34.522188 -114.813287 47 27011ft 312kts
17-Oct-23 07:54 34.589421 -114.720087 47 27010ft 316kts
17-Oct-23 07:55 34.647061 -114.639988 47 27007ft 317kts
17-Oct-23 07:56 34.705061 -114.559203 47 27007ft 317kts
17-Oct-23 07:56 34.751714 -114.490533 59 26992ft 318kts
17-Oct-23 07:57 34.764189 -114.385820 91 27006ft 319kts
17-Oct-23 07:58 34.761227 -114.278141 91 26994ft 319kts
17-Oct-23 07:59 34.758457 -114.170425 91 26998ft 318kts
17-Oct-23 08:01 34.755114 -114.045068 91 27015ft 318kts
17-Oct-23 08:01 34.752641 -113.955613 91 27035ft 317kts
17-Oct-23 08:02 34.749626 -113.848676 91 27085ft 315kts
17-Oct-23 08:03 34.746522 -113.742223 91 27136ft 315kts
17-Oct-23 08:04 34.743324 -113.635772 91 27137ft 316kts
17-Oct-23 08:05 34.740021 -113.528903 91 27137ft 316kts
17-Oct-23 08:06 34.736626 -113.422107 91 27137ft 316kts
17-Oct-23 08:07 34.733138 -113.315301 91 27145ft 316kts
17-Oct-23 08:08 34.729548 -113.208307 91 27137ft 316kts
17-Oct-23 08:09 34.725871 -113.101465 91 27137ft 316kts
17-Oct-23 08:10 34.722097 -112.994829 91 27165ft 315kts
17-Oct-23 08:11 34.718145 -112.885729 91 25998ft 330kts
17-Oct-23 08:12 34.713944 -112.772936 91 24517ft 340kts
17-Oct-23 08:13 34.710139 -112.658468 91 23010ft 338kts
17-Oct-23 08:14 34.705382 -112.545936 91 21532ft 331kts
17-Oct-23 08:15 34.723042 -112.441899 54 20072ft 324kts
17-Oct-23 08:16 34.772740 -112.351540 55 18646ft 319kts
17-Oct-23 08:17 34.821297 -112.262194 56 17246ft 315kts
17-Oct-23 08:18 34.864287 -112.170190 66 15861ft 312kts
17-Oct-23 08:19 34.898787 -112.074217 66 14556ft 307kts
17-Oct-23 08:20 34.933500 -111.979475 66 13260ft 307kts
17-Oct-23 08:21 34.968457 -111.884623 66 11960ft 301kts
17-Oct-23 08:22 35.004864 -111.796273 59 10794ft 283kts
17-Oct-23 08:23 35.060626 -111.733136 41 9867ft 268kts
17-Oct-23 08:24 35.113367 -111.677073 41 8824ft 228kts
17-Oct-23 08:25 35.154723 -111.632530 42 8018ft 164kts
17-Oct-23 08:26 35.158099 -111.650386 218 7179ft 102kts
17-Oct-23 08:27 35.143307 -111.666382 203 6994ft 12kts
17-Oct-23 08:28 35.140822 -111.670456 220 7001ft 18kts
17-Oct-23 08:29 35.137140 -111.674418 227 7003ft 14kts
17-Oct-23 08:30 35.136632 -111.676364 223 7004ft 0kts
17-Oct-23 08:31 35.136623 -111.676373 222 7004ft 0kts
17-Oct-23 08:32 35.136623 -111.676373 222 7004ft 0kts
17-Oct-23 08:33 35.136624 -111.676373 222 7004ft 0kts

Navigation Log

Ident Type
Flight plan parsing failed, navigation log unavailable